createdAt,value
2023-04-02T00:00:09.713Z,10.94
2023-04-02T00:03:46.173Z,10.36
2023-04-02T00:06:54.722Z,9.71
2023-04-02T00:09:58.300Z,10.14
2023-04-02T00:13:19.111Z,10.22
2023-04-02T00:16:24.653Z,10.33
2023-04-02T00:19:41.859Z,9.71
2023-04-02T00:22:45.437Z,10.52
2023-04-02T00:25:47.829Z,9.82
2023-04-02T00:28:51.910Z,10.36
2023-04-02T00:31:55.529Z,10.24
2023-04-02T00:34:58.755Z,10.54
2023-04-02T00:38:02.468Z,10.50
2023-04-02T00:41:08.012Z,11.18
2023-04-02T00:44:13.115Z,10.10
2023-04-02T00:47:24.900Z,10.28
2023-04-02T00:50:36.191Z,9.72
2023-04-02T00:53:39.880Z,9.81
2023-04-02T00:56:46.560Z,10.52
2023-04-02T01:00:18.164Z,10.75
2023-04-02T01:03:23.079Z,11.05
2023-04-02T01:06:38.332Z,11.12
2023-04-02T01:10:16.604Z,11.05
2023-04-02T01:13:34.121Z,10.05
2023-04-02T01:17:03.964Z,9.99
2023-04-02T01:20:12.162Z,10.36
2023-04-02T01:23:28.870Z,10.50
2023-04-02T01:26:33.699Z,10.88
2023-04-02T01:29:42.589Z,10.54
2023-04-02T01:32:45.597Z,10.64
2023-04-02T01:35:55.655Z,10.67
2023-04-02T01:39:24.146Z,10.59
2023-04-02T01:42:33.636Z,10.47
2023-04-02T01:45:36.368Z,9.71
2023-04-02T01:48:40.148Z,9.82
2023-04-02T01:51:45.345Z,10.43
2023-04-02T01:54:49.138Z,10.95
2023-04-02T01:57:54.280Z,9.91
2023-04-02T02:01:09.708Z,10.50
2023-04-02T02:04:14.232Z,9.95
2023-04-02T02:07:20.819Z,9.89
2023-04-02T02:10:34.208Z,10.33
2023-04-02T02:13:37.509Z,9.92
2023-04-02T02:16:42.756Z,9.65
2023-04-02T02:19:53.752Z,9.78
2023-04-02T02:22:57.351Z,9.77
2023-04-02T02:26:00.968Z,9.49
2023-04-02T02:29:07.469Z,9.41
2023-04-02T02:32:13.293Z,9.13
2023-04-02T02:35:29.015Z,9.82
2023-04-02T02:38:42.848Z,9.83
2023-04-02T02:42:01.185Z,10.05
2023-04-02T02:45:12.771Z,10.13
2023-04-02T02:48:19.621Z,12.20
2023-04-02T02:51:41.175Z,9.86
2023-04-02T02:54:57.062Z,10.53
2023-04-02T02:58:16.450Z,9.21
2023-04-02T03:01:31.609Z,8.94
2023-04-02T03:04:38.930Z,9.31
2023-04-02T03:07:52.110Z,9.14
2023-04-02T03:11:08.857Z,10.71
2023-04-02T03:14:37.530Z,9.27
2023-04-02T03:17:52.845Z,9.16
2023-04-02T03:21:16.729Z,8.29
2023-04-02T03:24:35.336Z,8.38
2023-04-02T03:27:44.036Z,8.76
2023-04-02T03:31:05.199Z,8.43
2023-04-02T03:34:21.093Z,8.43
2023-04-02T03:37:41.379Z,10.14
2023-04-02T03:41:10.192Z,9.37
2023-04-02T03:44:29.250Z,9.91
2023-04-02T03:47:47.379Z,10.56
2023-04-02T03:51:06.305Z,9.78
2023-04-02T03:54:15.647Z,10.40
2023-04-02T03:57:53.162Z,10.49
2023-04-02T04:01:13.070Z,10.10
2023-04-02T04:04:20.206Z,10.12
2023-04-02T04:07:31.942Z,8.42
2023-04-02T04:10:35.925Z,8.81
2023-04-02T04:13:51.604Z,9.13
2023-04-02T04:17:14.596Z,8.15
2023-04-02T04:20:23.204Z,8.60
2023-04-02T04:23:31.187Z,9.48
2023-04-02T04:26:49.663Z,9.39
2023-04-02T04:30:04.327Z,9.63
2023-04-02T04:33:23.287Z,9.48
2023-04-02T04:36:36.001Z,9.83
2023-04-02T04:39:50.222Z,9.13
2023-04-02T04:42:58.025Z,8.74
2023-04-02T04:46:09.128Z,8.55
2023-04-02T04:49:18.438Z,8.72
2023-04-02T04:52:29.973Z,8.74
2023-04-02T04:55:44.695Z,8.55
2023-04-02T04:59:16.137Z,9.04
2023-04-02T05:02:34.651Z,7.80
2023-04-02T05:05:40.926Z,7.26
2023-04-02T05:08:49.352Z,6.81
2023-04-02T05:12:12.708Z,8.05
2023-04-02T05:15:33.554Z,8.12
2023-04-02T05:18:45.647Z,7.48
2023-04-02T05:22:16.305Z,7.44
2023-04-02T05:25:27.915Z,7.57
2023-04-02T05:28:52.935Z,7.66
2023-04-02T05:32:04.393Z,7.60
2023-04-02T05:35:17.101Z,7.48
2023-04-02T05:38:28.593Z,7.27
2023-04-02T05:41:39.981Z,7.66
2023-04-02T05:45:16.716Z,7.46
2023-04-02T05:48:26.003Z,6.82
2023-04-02T05:51:41.866Z,7.61
2023-04-02T05:54:51.050Z,7.24
2023-04-02T06:01:21.614Z,6.82
2023-04-02T06:04:31.621Z,8.21
2023-04-02T06:07:50.171Z,8.73
2023-04-02T06:11:02.941Z,9.55
2023-04-02T06:14:06.270Z,9.07
2023-04-02T06:17:16.811Z,8.13
2023-04-02T06:20:20.777Z,8.22
2023-04-02T06:23:50.194Z,8.22
2023-04-02T06:27:02.928Z,8.38
2023-04-02T06:30:07.833Z,8.35
2023-04-02T06:33:13.246Z,9.21
2023-04-02T06:36:21.000Z,7.43
2023-04-02T06:39:25.774Z,8.26
2023-04-02T06:42:39.267Z,8.16
2023-04-02T06:45:53.880Z,8.45
2023-04-02T06:49:44.821Z,8.84
2023-04-02T06:52:57.641Z,8.67
2023-04-02T06:56:09.228Z,8.55
2023-04-02T06:59:13.359Z,8.76
2023-04-02T07:02:36.337Z,7.22
2023-04-02T07:05:43.051Z,8.26
2023-04-02T07:08:46.127Z,8.46
2023-04-02T07:11:49.949Z,8.45
2023-04-02T07:14:54.086Z,8.49
2023-04-02T07:17:59.512Z,7.06
2023-04-02T07:21:03.167Z,7.64
2023-04-02T07:24:07.435Z,7.64
2023-04-02T07:27:12.128Z,6.62
2023-04-02T07:30:15.173Z,7.66
2023-04-02T07:33:20.759Z,7.50
2023-04-02T07:36:24.805Z,7.07
2023-04-02T07:39:27.357Z,6.31
2023-04-02T07:42:30.518Z,8.32
2023-04-02T07:45:33.032Z,8.31
2023-04-02T07:48:35.752Z,6.40
2023-04-02T07:51:37.737Z,7.53
2023-04-02T07:54:40.684Z,7.26
2023-04-02T07:57:51.902Z,8.49
2023-04-02T08:00:54.523Z,8.11
2023-04-02T08:03:58.226Z,7.36
2023-04-02T08:07:02.073Z,6.69
2023-04-02T08:10:04.754Z,6.59
2023-04-02T08:13:07.255Z,7.00
2023-04-02T08:16:11.003Z,8.22
2023-04-02T08:19:13.810Z,8.56
2023-04-02T08:22:16.088Z,7.84
2023-04-02T08:25:18.933Z,8.20
2023-04-02T08:28:21.766Z,7.95
2023-04-02T08:31:24.622Z,7.26
2023-04-02T08:34:27.065Z,7.31
2023-04-02T08:37:29.630Z,6.62
2023-04-02T08:40:36.784Z,6.65
2023-04-02T08:44:12.976Z,7.61
2023-04-02T08:47:17.611Z,7.90
2023-04-02T08:50:32.948Z,7.66
2023-04-02T08:53:39.336Z,8.24
2023-04-02T08:56:53.227Z,7.74
2023-04-02T09:00:06.597Z,7.29
2023-04-02T09:03:20.618Z,8.43
2023-04-02T09:06:23.599Z,8.31
2023-04-02T09:09:27.320Z,8.55
2023-04-02T09:12:32.470Z,7.60
2023-04-02T09:15:37.075Z,7.75
2023-04-02T09:18:40.742Z,8.26
2023-04-02T09:21:57.115Z,8.53
2023-04-02T09:25:06.656Z,8.39
2023-04-02T09:28:12.034Z,7.87
2023-04-02T09:31:29.136Z,9.08
2023-04-02T09:34:33.940Z,8.94
2023-04-02T09:37:37.709Z,10.05
2023-04-02T09:40:47.070Z,9.21
2023-04-02T09:43:49.277Z,8.79
2023-04-02T09:47:06.677Z,9.52
2023-04-02T09:50:35.246Z,9.39
2023-04-02T09:53:46.355Z,9.07
2023-04-02T09:57:06.037Z,9.47
2023-04-02T10:00:31.535Z,9.99
2023-04-02T10:03:43.753Z,8.94
2023-04-02T10:06:51.158Z,10.06
2023-04-02T10:10:01.301Z,10.06
2023-04-02T10:13:26.863Z,10.40
2023-04-02T10:16:48.853Z,10.20
2023-04-02T10:19:56.482Z,9.81
2023-04-02T10:22:58.685Z,10.44
2023-04-02T10:26:24.785Z,9.61
2023-04-02T10:30:02.828Z,9.31
2023-04-02T10:33:15.813Z,9.18
2023-04-02T10:36:45.437Z,9.91
2023-04-02T10:39:59.134Z,8.88
2023-04-02T10:43:38.699Z,9.34
2023-04-02T10:47:01.464Z,9.92
2023-04-02T10:50:16.434Z,9.41
2023-04-02T10:53:21.729Z,9.57
2023-04-02T10:56:26.673Z,9.58
2023-04-02T10:59:35.174Z,9.61
2023-04-02T11:02:45.082Z,9.86
2023-04-02T11:05:51.200Z,10.32
2023-04-02T11:08:59.387Z,9.83
2023-04-02T11:12:03.421Z,10.32
2023-04-02T11:15:16.291Z,10.16
2023-04-02T11:18:32.830Z,9.72
2023-04-02T11:21:57.377Z,9.92
2023-04-02T11:25:03.160Z,10.64
2023-04-02T11:28:31.991Z,9.55
2023-04-02T11:31:34.890Z,9.78
2023-04-02T11:34:59.855Z,9.41
2023-04-02T11:38:11.922Z,9.72
2023-04-02T11:41:14.326Z,10.19
2023-04-02T11:44:24.630Z,9.77
2023-04-02T11:47:31.032Z,9.47
2023-04-02T11:50:41.232Z,10.05
2023-04-02T11:53:44.042Z,10.10
2023-04-02T11:57:03.626Z,10.83
2023-04-02T12:00:39.712Z,9.96
2023-04-02T12:03:48.502Z,10.26
2023-04-02T12:07:10.928Z,10.24
2023-04-02T12:10:23.624Z,9.72
2023-04-02T12:13:41.427Z,9.89
2023-04-02T12:16:44.641Z,10.22
2023-04-02T12:19:52.793Z,11.03
2023-04-02T12:22:57.128Z,11.04
2023-04-02T12:26:06.784Z,11.42
2023-04-02T12:29:27.459Z,9.95
2023-04-02T12:32:31.222Z,10.49
2023-04-02T12:35:36.321Z,10.85
2023-04-02T12:38:52.168Z,11.46
2023-04-02T12:41:54.820Z,11.83
2023-04-02T12:44:57.265Z,10.94
2023-04-02T12:48:05.407Z,11.59
2023-04-02T12:51:07.721Z,11.91
2023-04-02T12:54:17.780Z,11.14
2023-04-02T12:57:21.590Z,11.97
2023-04-02T13:00:27.694Z,11.49
2023-04-02T13:03:30.358Z,11.03
2023-04-02T13:06:33.925Z,11.82
2023-04-02T13:09:43.439Z,11.05
2023-04-02T13:12:46.345Z,11.36
2023-04-02T13:16:03.128Z,11.36
2023-04-02T13:19:18.376Z,11.85
2023-04-02T13:22:31.086Z,10.77
2023-04-02T13:25:37.053Z,11.08
2023-04-02T13:28:39.312Z,11.91
2023-04-02T13:31:42.232Z,11.70
2023-04-02T13:34:44.475Z,11.59
2023-04-02T13:37:47.132Z,11.79
2023-04-02T13:40:49.337Z,11.86
2023-04-02T13:43:54.216Z,11.80
2023-04-02T13:46:57.245Z,11.83
2023-04-02T13:50:00.207Z,11.03
2023-04-02T13:53:10.382Z,11.28
2023-04-02T13:56:13.344Z,11.61
2023-04-02T13:59:16.616Z,12.29
2023-04-02T14:02:25.000Z,12.19
2023-04-02T14:05:42.360Z,11.94
2023-04-02T14:08:58.847Z,12.54
2023-04-02T14:12:10.873Z,12.48
2023-04-02T14:15:21.322Z,11.69
2023-04-02T14:18:57.097Z,12.27
2023-04-02T14:22:20.784Z,13.78
2023-04-02T14:25:28.642Z,13.87
2023-04-02T14:28:42.706Z,13.23
2023-04-02T14:31:56.047Z,13.60
2023-04-02T14:35:19.709Z,12.50
2023-04-02T14:38:56.293Z,12.27
2023-04-02T14:42:05.352Z,12.54
2023-04-02T14:45:29.183Z,12.09
2023-04-02T14:48:50.586Z,12.99
2023-04-02T14:52:05.857Z,11.89
2023-04-02T14:55:22.127Z,12.54
2023-04-02T14:58:33.498Z,12.24
2023-04-02T15:01:43.600Z,14.52
2023-04-02T15:05:01.207Z,15.10
2023-04-02T15:08:16.599Z,14.86
2023-04-02T15:11:26.654Z,15.32
2023-04-02T15:14:35.936Z,16.24
2023-04-02T15:17:39.518Z,15.02
2023-04-02T15:21:06.177Z,14.79
2023-04-02T15:24:11.193Z,13.19
2023-04-02T15:27:25.598Z,13.71
2023-04-02T15:30:35.714Z,14.01
2023-04-02T15:33:41.492Z,15.00
2023-04-02T15:37:20.011Z,14.95
2023-04-02T15:40:25.890Z,15.02
2023-04-02T15:43:33.043Z,15.63
2023-04-02T15:47:11.723Z,16.30
2023-04-02T15:50:43.561Z,16.41
2023-04-02T15:54:01.692Z,16.47
2023-04-02T15:57:16.142Z,15.37
2023-04-02T16:00:30.778Z,15.74
2023-04-02T16:03:55.336Z,15.23
2023-04-02T16:07:28.867Z,15.16
2023-04-02T16:10:42.040Z,15.33
2023-04-02T16:13:45.890Z,14.67
2023-04-02T16:16:50.712Z,15.39
2023-04-02T16:20:22.882Z,14.72
2023-04-02T16:23:43.958Z,13.93
2023-04-02T16:27:16.992Z,14.40
2023-04-02T16:30:38.112Z,13.90
2023-04-02T16:33:56.225Z,14.45
2023-04-02T16:37:11.753Z,13.93
2023-04-02T16:40:37.878Z,14.37
2023-04-02T16:43:55.026Z,14.11
2023-04-02T16:47:01.944Z,14.11
2023-04-02T16:50:34.861Z,14.03
2023-04-02T16:53:58.393Z,14.27
2023-04-02T16:57:06.325Z,15.12
2023-04-02T17:00:57.070Z,15.27
2023-04-02T17:04:09.243Z,16.19
2023-04-02T17:07:34.505Z,15.94
2023-04-02T17:11:01.090Z,15.20
2023-04-02T17:14:12.745Z,15.33
2023-04-02T17:17:15.936Z,15.49
2023-04-02T17:20:24.680Z,16.12
2023-04-02T17:23:29.940Z,16.86
2023-04-02T17:26:37.098Z,16.55
2023-04-02T17:29:43.561Z,16.70
2023-04-02T17:32:46.849Z,16.21
2023-04-02T17:36:27.647Z,15.83
2023-04-02T17:39:42.686Z,16.44
2023-04-02T17:43:12.858Z,16.94
2023-04-02T17:46:52.777Z,16.87
2023-04-02T17:50:12.900Z,16.59
2023-04-02T17:53:38.046Z,15.60
2023-04-02T17:57:08.189Z,15.46
2023-04-02T18:00:22.593Z,15.16
2023-04-02T18:03:49.726Z,14.72
2023-04-02T18:07:11.189Z,15.34
2023-04-02T18:10:27.612Z,15.84
2023-04-02T18:13:50.366Z,15.13
2023-04-02T18:16:57.695Z,15.78
2023-04-02T18:20:27.847Z,14.61
2023-04-02T18:23:54.057Z,15.14
2023-04-02T18:27:25.775Z,14.86
2023-04-02T18:30:39.536Z,14.67
2023-04-02T18:34:19.862Z,14.68
2023-04-02T18:37:37.415Z,14.30
2023-04-02T18:40:58.305Z,15.10
2023-04-02T18:44:16.958Z,14.51
2023-04-02T18:47:25.520Z,14.78
2023-04-02T18:50:35.844Z,14.67
2023-04-02T18:53:38.992Z,14.83
2023-04-02T18:56:44.031Z,14.76
2023-04-02T19:00:02.224Z,15.26
2023-04-02T19:03:17.840Z,15.19
2023-04-02T19:06:28.870Z,14.99
2023-04-02T19:09:34.470Z,14.54
2023-04-02T19:12:37.154Z,12.98
2023-04-02T19:15:55.474Z,13.18
2023-04-02T19:19:19.722Z,13.33
2023-04-02T19:22:40.821Z,13.25
2023-04-02T19:26:16.349Z,13.73
2023-04-02T19:29:31.606Z,13.08
2023-04-02T19:32:34.617Z,12.69
2023-04-02T19:36:05.839Z,13.27
2023-04-02T19:39:14.310Z,14.75
2023-04-02T19:42:41.287Z,15.30
2023-04-02T19:45:48.418Z,13.66
2023-04-02T19:49:26.160Z,14.88
2023-04-02T19:52:28.947Z,15.29
2023-04-02T19:55:31.666Z,14.64
2023-04-02T19:58:36.894Z,14.92
2023-04-02T20:01:39.104Z,14.89
2023-04-02T20:04:42.651Z,14.69
2023-04-02T20:07:45.074Z,14.48
2023-04-02T20:10:48.038Z,14.89
2023-04-02T20:13:50.736Z,14.54
2023-04-02T20:16:53.258Z,14.03
2023-04-02T20:19:56.650Z,14.69
2023-04-02T20:22:59.842Z,14.93
2023-04-02T20:26:03.613Z,15.70
2023-04-02T20:29:06.627Z,15.78
2023-04-02T20:32:13.524Z,15.46
2023-04-02T20:35:16.308Z,15.83
2023-04-02T20:38:18.936Z,16.48
2023-04-02T20:41:22.699Z,16.48
2023-04-02T20:44:25.103Z,16.19
2023-04-02T20:47:27.968Z,15.77
2023-04-02T20:50:30.949Z,15.03
2023-04-02T20:53:35.216Z,14.48
2023-04-02T20:56:37.646Z,14.18
2023-04-02T20:59:40.835Z,12.55
2023-04-02T21:02:43.003Z,14.21
2023-04-02T21:05:47.561Z,13.55
2023-04-02T21:08:50.447Z,13.42
2023-04-02T21:11:53.109Z,13.12
2023-04-02T21:15:00.236Z,13.96
2023-04-02T21:18:04.995Z,12.62
2023-04-02T21:21:08.825Z,12.60
2023-04-02T21:24:12.037Z,12.44
2023-04-02T21:27:14.659Z,11.05
2023-04-02T21:30:17.828Z,11.19
2023-04-02T21:33:19.815Z,11.43
2023-04-02T21:36:31.795Z,12.24
2023-04-02T21:39:34.789Z,12.57
2023-04-02T21:42:37.465Z,11.94
2023-04-02T21:45:39.969Z,10.83
2023-04-02T21:48:42.651Z,11.69
2023-04-02T21:51:47.317Z,10.80
2023-04-02T21:54:49.910Z,11.28
2023-04-02T21:57:52.025Z,10.73
2023-04-02T22:00:54.419Z,10.61
2023-04-02T22:03:58.250Z,11.12
2023-04-02T22:07:01.029Z,11.75
2023-04-02T22:10:03.347Z,11.90
2023-04-02T22:13:05.950Z,11.52
2023-04-02T22:16:13.466Z,11.70
2023-04-02T22:19:17.245Z,11.36
2023-04-02T22:22:19.270Z,12.12
2023-04-02T22:25:21.877Z,11.39
2023-04-02T22:28:24.175Z,11.26
2023-04-02T22:31:28.907Z,11.99
2023-04-02T22:34:32.594Z,11.97
2023-04-02T22:37:35.274Z,11.75
2023-04-02T22:40:37.618Z,12.26
2023-04-02T22:43:44.207Z,12.45
2023-04-02T22:46:46.712Z,12.00
2023-04-02T22:49:50.210Z,11.83
2023-04-02T22:52:52.357Z,12.72
2023-04-02T22:55:54.925Z,13.38
2023-04-02T22:58:57.157Z,13.08
2023-04-02T23:01:59.796Z,14.40
2023-04-02T23:05:02.077Z,15.46
2023-04-02T23:08:05.452Z,15.94
2023-04-02T23:11:13.474Z,16.01
2023-04-02T23:14:16.052Z,16.15
2023-04-02T23:17:18.429Z,15.73
2023-04-02T23:20:21.445Z,16.01
2023-04-02T23:23:24.400Z,16.44
2023-04-02T23:26:29.751Z,16.53
2023-04-02T23:29:34.518Z,16.32
2023-04-02T23:32:37.430Z,16.86
2023-04-02T23:35:39.706Z,16.77
2023-04-02T23:38:42.229Z,17.10
2023-04-02T23:41:44.539Z,17.34
2023-04-02T23:44:47.076Z,17.30
2023-04-02T23:47:49.281Z,17.33
2023-04-02T23:50:51.857Z,17.41
2023-04-02T23:53:55.665Z,17.27
2023-04-02T23:56:58.131Z,17.44
